sensor_id;sensor_type;location;lat;lon;timestamp;P1;durP1;ratioP1;P2;durP2;ratioP2
76477;SDS011;65309;49.790;18.972;2024-03-25T00:05:00;3.10;;;1.65;;
76477;SDS011;65309;49.790;18.972;2024-03-25T00:10:01;2.13;;;1.67;;
76477;SDS011;65309;49.790;18.972;2024-03-25T00:15:04;2.78;;;1.92;;
76477;SDS011;65309;49.790;18.972;2024-03-25T00:20:07;2.03;;;1.42;;
76477;SDS011;65309;49.790;18.972;2024-03-25T00:25:10;3.28;;;1.70;;
76477;SDS011;65309;49.790;18.972;2024-03-25T00:30:13;1.95;;;1.48;;
76477;SDS011;65309;49.790;18.972;2024-03-25T00:35:14;3.38;;;1.85;;
76477;SDS011;65309;49.790;18.972;2024-03-25T00:40:15;1.98;;;1.45;;
76477;SDS011;65309;49.790;18.972;2024-03-25T00:45:18;2.17;;;1.52;;
76477;SDS011;65309;49.790;18.972;2024-03-25T00:50:19;3.05;;;2.38;;
76477;SDS011;65309;49.790;18.972;2024-03-25T00:55:21;4.10;;;1.92;;
76477;SDS011;65309;49.790;18.972;2024-03-25T01:00:24;4.30;;;2.33;;
76477;SDS011;65309;49.790;18.972;2024-03-25T01:05:25;3.20;;;2.30;;
76477;SDS011;65309;49.790;18.972;2024-03-25T01:10:27;3.03;;;1.85;;
76477;SDS011;65309;49.790;18.972;2024-03-25T01:15:29;2.83;;;2.15;;
76477;SDS011;65309;49.790;18.972;2024-03-25T01:20:30;1.95;;;1.52;;
76477;SDS011;65309;49.790;18.972;2024-03-25T01:25:31;3.05;;;1.85;;
76477;SDS011;65309;49.790;18.972;2024-03-25T01:30:34;1.25;;;1.15;;
76477;SDS011;65309;49.790;18.972;2024-03-25T01:35:36;1.58;;;1.35;;
76477;SDS011;65309;49.790;18.972;2024-03-25T01:40:37;2.75;;;2.10;;
76477;SDS011;65309;49.790;18.972;2024-03-25T01:45:40;2.47;;;2.13;;
76477;SDS011;65309;49.790;18.972;2024-03-25T01:50:43;4.38;;;1.75;;
76477;SDS011;65309;49.790;18.972;2024-03-25T01:55:46;5.30;;;2.70;;
76477;SDS011;65309;49.790;18.972;2024-03-25T02:00:50;3.50;;;2.28;;
76477;SDS011;65309;49.790;18.972;2024-03-25T02:05:54;2.13;;;1.60;;
76477;SDS011;65309;49.790;18.972;2024-03-25T02:11:02;3.15;;;1.58;;
76477;SDS011;65309;49.790;18.972;2024-03-25T02:16:06;1.83;;;1.52;;
76477;SDS011;65309;49.790;18.972;2024-03-25T02:21:07;2.85;;;2.00;;
76477;SDS011;65309;49.790;18.972;2024-03-25T02:26:10;0.68;;;0.45;;
76477;SDS011;65309;49.790;18.972;2024-03-25T02:31:11;1.95;;;1.63;;
76477;SDS011;65309;49.790;18.972;2024-03-25T02:36:13;1.73;;;1.50;;
76477;SDS011;65309;49.790;18.972;2024-03-25T02:41:15;1.88;;;1.55;;
76477;SDS011;65309;49.790;18.972;2024-03-25T02:46:17;1.55;;;1.17;;
76477;SDS011;65309;49.790;18.972;2024-03-25T02:51:18;1.90;;;1.30;;
76477;SDS011;65309;49.790;18.972;2024-03-25T02:56:21;1.60;;;1.13;;
76477;SDS011;65309;49.790;18.972;2024-03-25T03:01:22;2.72;;;1.55;;
76477;SDS011;65309;49.790;18.972;2024-03-25T03:06:23;1.77;;;1.20;;
76477;SDS011;65309;49.790;18.972;2024-03-25T03:11:26;3.28;;;1.73;;
76477;SDS011;65309;49.790;18.972;2024-03-25T03:16:27;2.08;;;1.58;;
76477;SDS011;65309;49.790;18.972;2024-03-25T03:21:28;3.03;;;1.83;;
76477;SDS011;65309;49.790;18.972;2024-03-25T03:26:32;2.33;;;1.33;;
76477;SDS011;65309;49.790;18.972;2024-03-25T03:31:33;1.98;;;1.30;;
76477;SDS011;65309;49.790;18.972;2024-03-25T03:36:35;2.95;;;1.77;;
76477;SDS011;65309;49.790;18.972;2024-03-25T03:41:37;1.70;;;1.40;;
76477;SDS011;65309;49.790;18.972;2024-03-25T03:46:39;2.10;;;1.60;;
76477;SDS011;65309;49.790;18.972;2024-03-25T03:51:40;1.30;;;1.17;;
76477;SDS011;65309;49.790;18.972;2024-03-25T03:56:42;1.92;;;1.42;;
76477;SDS011;65309;49.790;18.972;2024-03-25T04:01:43;0.77;;;0.77;;
76477;SDS011;65309;49.790;18.972;2024-03-25T04:06:45;1.30;;;1.00;;
76477;SDS011;65309;49.790;18.972;2024-03-25T04:11:47;1.42;;;1.05;;
76477;SDS011;65309;49.790;18.972;2024-03-25T04:16:48;1.35;;;1.15;;
76477;SDS011;65309;49.790;18.972;2024-03-25T04:21:49;2.75;;;1.42;;
76477;SDS011;65309;49.790;18.972;2024-03-25T04:26:52;1.60;;;1.00;;
76477;SDS011;65309;49.790;18.972;2024-03-25T04:31:53;0.70;;;0.70;;
76477;SDS011;65309;49.790;18.972;2024-03-25T04:36:54;1.80;;;1.30;;
76477;SDS011;65309;49.790;18.972;2024-03-25T04:41:57;1.40;;;1.20;;
76477;SDS011;65309;49.790;18.972;2024-03-25T04:46:58;1.10;;;0.90;;
76477;SDS011;65309;49.790;18.972;2024-03-25T04:51:59;1.00;;;0.60;;
76477;SDS011;65309;49.790;18.972;2024-03-25T04:57:01;1.63;;;0.95;;
76477;SDS011;65309;49.790;18.972;2024-03-25T05:02:03;0.93;;;0.63;;
76477;SDS011;65309;49.790;18.972;2024-03-25T05:07:04;1.95;;;1.30;;
76477;SDS011;65309;49.790;18.972;2024-03-25T05:12:07;1.23;;;1.10;;
76477;SDS011;65309;49.790;18.972;2024-03-25T05:17:08;2.55;;;1.40;;
76477;SDS011;65309;49.790;18.972;2024-03-25T05:22:10;2.53;;;1.73;;
76477;SDS011;65309;49.790;18.972;2024-03-25T05:27:12;2.40;;;1.95;;
76477;SDS011;65309;49.790;18.972;2024-03-25T05:32:13;1.40;;;1.20;;
76477;SDS011;65309;49.790;18.972;2024-03-25T05:42:19;4.15;;;1.92;;
76477;SDS011;65309;49.790;18.972;2024-03-25T05:52:22;1.88;;;1.60;;
76477;SDS011;65309;49.790;18.972;2024-03-25T05:57:25;1.45;;;1.23;;
76477;SDS011;65309;49.790;18.972;2024-03-25T06:02:26;0.98;;;0.85;;
76477;SDS011;65309;49.790;18.972;2024-03-25T06:07:27;2.60;;;2.00;;
76477;SDS011;65309;49.790;18.972;2024-03-25T06:12:29;2.05;;;1.42;;
76477;SDS011;65309;49.790;18.972;2024-03-25T06:17:31;2.53;;;2.05;;
76477;SDS011;65309;49.790;18.972;2024-03-25T06:22:32;4.03;;;2.88;;
76477;SDS011;65309;49.790;18.972;2024-03-25T06:27:34;1.98;;;1.33;;
76477;SDS011;65309;49.790;18.972;2024-03-25T06:32:36;1.80;;;1.58;;
76477;SDS011;65309;49.790;18.972;2024-03-25T06:37:55;3.63;;;2.95;;
76477;SDS011;65309;49.790;18.972;2024-03-25T06:42:58;4.22;;;3.30;;
76477;SDS011;65309;49.790;18.972;2024-03-25T06:47:59;3.47;;;2.25;;
76477;SDS011;65309;49.790;18.972;2024-03-25T06:53:00;5.53;;;1.92;;
76477;SDS011;65309;49.790;18.972;2024-03-25T06:58:03;4.05;;;2.60;;
76477;SDS011;65309;49.790;18.972;2024-03-25T07:03:04;3.38;;;2.30;;
76477;SDS011;65309;49.790;18.972;2024-03-25T07:08:05;1.70;;;1.38;;
76477;SDS011;65309;49.790;18.972;2024-03-25T07:13:08;4.13;;;2.83;;
76477;SDS011;65309;49.790;18.972;2024-03-25T07:18:09;4.68;;;2.53;;
76477;SDS011;65309;49.790;18.972;2024-03-25T07:23:14;3.85;;;2.25;;
76477;SDS011;65309;49.790;18.972;2024-03-25T07:28:16;3.35;;;2.80;;
76477;SDS011;65309;49.790;18.972;2024-03-25T07:33:18;1.88;;;1.52;;
76477;SDS011;65309;49.790;18.972;2024-03-25T07:38:19;2.92;;;2.58;;
76477;SDS011;65309;49.790;18.972;2024-03-25T07:43:22;4.10;;;1.83;;
76477;SDS011;65309;49.790;18.972;2024-03-25T07:48:23;2.53;;;1.25;;
76477;SDS011;65309;49.790;18.972;2024-03-25T07:53:24;1.67;;;1.33;;
76477;SDS011;65309;49.790;18.972;2024-03-25T07:58:27;4.25;;;2.10;;
76477;SDS011;65309;49.790;18.972;2024-03-25T08:03:28;2.92;;;1.85;;
76477;SDS011;65309;49.790;18.972;2024-03-25T08:08:29;3.00;;;2.33;;
76477;SDS011;65309;49.790;18.972;2024-03-25T08:13:32;3.50;;;2.28;;
76477;SDS011;65309;49.790;18.972;2024-03-25T08:18:33;2.85;;;2.08;;
76477;SDS011;65309;49.790;18.972;2024-03-25T08:23:34;3.25;;;1.63;;
76477;SDS011;65309;49.790;18.972;2024-03-25T08:28:37;4.88;;;3.40;;
76477;SDS011;65309;49.790;18.972;2024-03-25T08:33:38;3.33;;;2.25;;
76477;SDS011;65309;49.790;18.972;2024-03-25T08:38:39;2.13;;;1.50;;
76477;SDS011;65309;49.790;18.972;2024-03-25T08:43:42;3.20;;;2.28;;
76477;SDS011;65309;49.790;18.972;2024-03-25T08:48:44;2.90;;;2.30;;
76477;SDS011;65309;49.790;18.972;2024-03-25T08:53:45;3.65;;;2.40;;
76477;SDS011;65309;49.790;18.972;2024-03-25T08:58:47;2.60;;;1.92;;
76477;SDS011;65309;49.790;18.972;2024-03-25T09:03:49;3.05;;;2.55;;
76477;SDS011;65309;49.790;18.972;2024-03-25T09:08:50;2.45;;;2.10;;
76477;SDS011;65309;49.790;18.972;2024-03-25T09:14:11;2.13;;;1.88;;
76477;SDS011;65309;49.790;18.972;2024-03-25T09:19:13;5.07;;;3.42;;
76477;SDS011;65309;49.790;18.972;2024-03-25T09:24:14;3.80;;;2.83;;
76477;SDS011;65309;49.790;18.972;2024-03-25T09:29:17;3.35;;;2.38;;
76477;SDS011;65309;49.790;18.972;2024-03-25T09:34:18;2.53;;;2.13;;
76477;SDS011;65309;49.790;18.972;2024-03-25T09:39:19;2.83;;;2.30;;
76477;SDS011;65309;49.790;18.972;2024-03-25T09:44:23;2.65;;;2.05;;
76477;SDS011;65309;49.790;18.972;2024-03-25T09:49:26;3.95;;;1.95;;
76477;SDS011;65309;49.790;18.972;2024-03-25T09:54:29;3.22;;;2.30;;
76477;SDS011;65309;49.790;18.972;2024-03-25T09:59:31;2.70;;;2.08;;
76477;SDS011;65309;49.790;18.972;2024-03-25T10:09:33;2.28;;;1.90;;
76477;SDS011;65309;49.790;18.972;2024-03-25T10:14:36;6.10;;;2.90;;
76477;SDS011;65309;49.790;18.972;2024-03-25T10:19:40;3.58;;;2.38;;
76477;SDS011;65309;49.790;18.972;2024-03-25T10:24:42;1.83;;;1.30;;
76477;SDS011;65309;49.790;18.972;2024-03-25T10:29:45;2.03;;;1.70;;
76477;SDS011;65309;49.790;18.972;2024-03-25T10:34:47;2.28;;;1.60;;
76477;SDS011;65309;49.790;18.972;2024-03-25T10:39:49;2.78;;;2.22;;
76477;SDS011;65309;49.790;18.972;2024-03-25T10:44:55;2.15;;;1.95;;
76477;SDS011;65309;49.790;18.972;2024-03-25T10:49:56;1.15;;;0.85;;
76477;SDS011;65309;49.790;18.972;2024-03-25T10:54:59;1.08;;;0.60;;
76477;SDS011;65309;49.790;18.972;2024-03-25T11:00:01;2.33;;;1.13;;
76477;SDS011;65309;49.790;18.972;2024-03-25T11:05:04;1.23;;;1.05;;
76477;SDS011;65309;49.790;18.972;2024-03-25T11:10:06;1.33;;;1.05;;
76477;SDS011;65309;49.790;18.972;2024-03-25T11:15:10;1.17;;;0.95;;
76477;SDS011;65309;49.790;18.972;2024-03-25T11:20:11;1.45;;;1.20;;
76477;SDS011;65309;49.790;18.972;2024-03-25T11:25:15;2.75;;;1.75;;
76477;SDS011;65309;49.790;18.972;2024-03-25T11:30:18;3.47;;;2.20;;
76477;SDS011;65309;49.790;18.972;2024-03-25T11:35:20;2.22;;;1.73;;
76477;SDS011;65309;49.790;18.972;2024-03-25T11:40:21;1.70;;;1.40;;
76477;SDS011;65309;49.790;18.972;2024-03-25T11:45:24;2.92;;;1.95;;
76477;SDS011;65309;49.790;18.972;2024-03-25T11:50:26;2.88;;;2.47;;
76477;SDS011;65309;49.790;18.972;2024-03-25T11:55:27;3.78;;;2.63;;
76477;SDS011;65309;49.790;18.972;2024-03-25T12:00:29;7.32;;;2.88;;
76477;SDS011;65309;49.790;18.972;2024-03-25T12:05:31;13.15;;;5.07;;
76477;SDS011;65309;49.790;18.972;2024-03-25T12:10:34;7.30;;;4.90;;
76477;SDS011;65309;49.790;18.972;2024-03-25T12:15:54;5.97;;;3.25;;
76477;SDS011;65309;49.790;18.972;2024-03-25T12:20:56;7.85;;;3.72;;
76477;SDS011;65309;49.790;18.972;2024-03-25T12:25:58;4.45;;;3.00;;
76477;SDS011;65309;49.790;18.972;2024-03-25T12:31:01;2.60;;;1.67;;
76477;SDS011;65309;49.790;18.972;2024-03-25T12:36:03;3.05;;;1.90;;
76477;SDS011;65309;49.790;18.972;2024-03-25T12:41:07;4.28;;;2.15;;
76477;SDS011;65309;49.790;18.972;2024-03-25T12:46:11;3.10;;;1.98;;
76477;SDS011;65309;49.790;18.972;2024-03-25T12:51:13;6.45;;;1.35;;
76477;SDS011;65309;49.790;18.972;2024-03-25T12:56:15;3.20;;;1.60;;
76477;SDS011;65309;49.790;18.972;2024-03-25T13:01:18;2.10;;;1.73;;
76477;SDS011;65309;49.790;18.972;2024-03-25T13:06:20;2.42;;;1.67;;
76477;SDS011;65309;49.790;18.972;2024-03-25T13:11:21;1.85;;;1.50;;
76477;SDS011;65309;49.790;18.972;2024-03-25T13:16:23;3.40;;;2.10;;
76477;SDS011;65309;49.790;18.972;2024-03-25T13:21:25;2.33;;;1.63;;
76477;SDS011;65309;49.790;18.972;2024-03-25T13:26:26;2.58;;;1.50;;
76477;SDS011;65309;49.790;18.972;2024-03-25T13:31:29;2.58;;;1.55;;
76477;SDS011;65309;49.790;18.972;2024-03-25T13:36:31;3.10;;;1.98;;
76477;SDS011;65309;49.790;18.972;2024-03-25T13:41:32;1.98;;;1.40;;
76477;SDS011;65309;49.790;18.972;2024-03-25T13:46:34;2.80;;;1.75;;
76477;SDS011;65309;49.790;18.972;2024-03-25T13:51:35;2.63;;;1.42;;
76477;SDS011;65309;49.790;18.972;2024-03-25T13:56:37;2.03;;;1.30;;
76477;SDS011;65309;49.790;18.972;2024-03-25T14:01:40;1.67;;;1.10;;
76477;SDS011;65309;49.790;18.972;2024-03-25T14:06:42;3.53;;;1.52;;
76477;SDS011;65309;49.790;18.972;2024-03-25T14:11:43;4.18;;;1.73;;
76477;SDS011;65309;49.790;18.972;2024-03-25T14:16:45;2.65;;;1.67;;
76477;SDS011;65309;49.790;18.972;2024-03-25T14:26:49;2.33;;;1.85;;
76477;SDS011;65309;49.790;18.972;2024-03-25T14:31:51;3.47;;;2.15;;
76477;SDS011;65309;49.790;18.972;2024-03-25T14:36:53;3.20;;;2.58;;
76477;SDS011;65309;49.790;18.972;2024-03-25T14:41:55;5.03;;;2.58;;
76477;SDS011;65309;49.790;18.972;2024-03-25T14:46:58;4.63;;;2.13;;
76477;SDS011;65309;49.790;18.972;2024-03-25T14:52:02;3.42;;;2.08;;
76477;SDS011;65309;49.790;18.972;2024-03-25T14:57:04;5.22;;;2.20;;
76477;SDS011;65309;49.790;18.972;2024-03-25T15:02:07;3.20;;;1.95;;
76477;SDS011;65309;49.790;18.972;2024-03-25T15:07:08;4.07;;;2.35;;
76477;SDS011;65309;49.790;18.972;2024-03-25T15:12:10;4.90;;;3.13;;
76477;SDS011;65309;49.790;18.972;2024-03-25T15:17:14;3.90;;;2.45;;
76477;SDS011;65309;49.790;18.972;2024-03-25T15:22:15;3.25;;;2.58;;
76477;SDS011;65309;49.790;18.972;2024-03-25T15:27:16;4.25;;;2.53;;
76477;SDS011;65309;49.790;18.972;2024-03-25T15:32:19;5.40;;;3.53;;
76477;SDS011;65309;49.790;18.972;2024-03-25T15:37:21;2.75;;;1.92;;
76477;SDS011;65309;49.790;18.972;2024-03-25T15:42:22;4.00;;;2.70;;
76477;SDS011;65309;49.790;18.972;2024-03-25T15:47:25;4.25;;;1.98;;
76477;SDS011;65309;49.790;18.972;2024-03-25T15:52:26;5.25;;;3.55;;
76477;SDS011;65309;49.790;18.972;2024-03-25T15:57:27;6.55;;;3.28;;
76477;SDS011;65309;49.790;18.972;2024-03-25T16:02:30;4.40;;;1.88;;
76477;SDS011;65309;49.790;18.972;2024-03-25T16:07:31;3.05;;;1.83;;
76477;SDS011;65309;49.790;18.972;2024-03-25T16:12:33;1.98;;;1.23;;
76477;SDS011;65309;49.790;18.972;2024-03-25T16:17:36;4.25;;;2.22;;
76477;SDS011;65309;49.790;18.972;2024-03-25T16:22:37;2.63;;;2.00;;
76477;SDS011;65309;49.790;18.972;2024-03-25T16:27:38;2.75;;;2.03;;
76477;SDS011;65309;49.790;18.972;2024-03-25T16:32:41;2.83;;;1.88;;
76477;SDS011;65309;49.790;18.972;2024-03-25T16:47:48;3.42;;;1.58;;
76477;SDS011;65309;49.790;18.972;2024-03-25T16:52:50;1.35;;;1.25;;
76477;SDS011;65309;49.790;18.972;2024-03-25T16:57:51;2.38;;;1.48;;
76477;SDS011;65309;49.790;18.972;2024-03-25T17:02:54;3.63;;;2.45;;
76477;SDS011;65309;49.790;18.972;2024-03-25T17:07:55;4.97;;;2.38;;
76477;SDS011;65309;49.790;18.972;2024-03-25T17:12:56;3.63;;;2.75;;
76477;SDS011;65309;49.790;18.972;2024-03-25T17:18:01;4.15;;;2.05;;
76477;SDS011;65309;49.790;18.972;2024-03-25T17:23:08;1.88;;;1.70;;
76477;SDS011;65309;49.790;18.972;2024-03-25T17:28:10;3.05;;;2.20;;
76477;SDS011;65309;49.790;18.972;2024-03-25T17:33:12;2.40;;;2.05;;
76477;SDS011;65309;49.790;18.972;2024-03-25T17:38:14;4.25;;;2.40;;
76477;SDS011;65309;49.790;18.972;2024-03-25T17:43:15;4.03;;;2.90;;
76477;SDS011;65309;49.790;18.972;2024-03-25T17:48:19;3.08;;;1.83;;
76477;SDS011;65309;49.790;18.972;2024-03-25T17:53:21;4.03;;;2.10;;
76477;SDS011;65309;49.790;18.972;2024-03-25T17:58:23;2.53;;;2.10;;
76477;SDS011;65309;49.790;18.972;2024-03-25T18:03:26;3.22;;;1.90;;
76477;SDS011;65309;49.790;18.972;2024-03-25T18:08:27;4.65;;;3.10;;
76477;SDS011;65309;49.790;18.972;2024-03-25T18:13:29;3.10;;;2.22;;
76477;SDS011;65309;49.790;18.972;2024-03-25T18:18:31;3.47;;;2.40;;
76477;SDS011;65309;49.790;18.972;2024-03-25T18:23:33;5.35;;;2.28;;
76477;SDS011;65309;49.790;18.972;2024-03-25T18:28:34;2.78;;;1.88;;
76477;SDS011;65309;49.790;18.972;2024-03-25T18:33:37;9.52;;;5.03;;
76477;SDS011;65309;49.790;18.972;2024-03-25T18:38:38;5.95;;;2.60;;
76477;SDS011;65309;49.790;18.972;2024-03-25T18:43:40;9.93;;;4.90;;
76477;SDS011;65309;49.790;18.972;2024-03-25T18:48:42;5.40;;;4.28;;
76477;SDS011;65309;49.790;18.972;2024-03-25T18:53:44;5.05;;;3.88;;
76477;SDS011;65309;49.790;18.972;2024-03-25T18:58:45;3.67;;;3.05;;
76477;SDS011;65309;49.790;18.972;2024-03-25T19:03:48;4.20;;;3.40;;
76477;SDS011;65309;49.790;18.972;2024-03-25T19:08:49;5.50;;;4.47;;
76477;SDS011;65309;49.790;18.972;2024-03-25T19:13:51;6.25;;;3.75;;
76477;SDS011;65309;49.790;18.972;2024-03-25T19:18:53;12.57;;;3.20;;
76477;SDS011;65309;49.790;18.972;2024-03-25T19:23:55;5.55;;;3.28;;
76477;SDS011;65309;49.790;18.972;2024-03-25T19:28:56;3.75;;;2.30;;
76477;SDS011;65309;49.790;18.972;2024-03-25T19:33:59;2.47;;;2.05;;
76477;SDS011;65309;49.790;18.972;2024-03-25T19:39:00;2.90;;;2.55;;
76477;SDS011;65309;49.790;18.972;2024-03-25T19:44:02;2.63;;;2.05;;
76477;SDS011;65309;49.790;18.972;2024-03-25T19:49:06;4.53;;;2.45;;
76477;SDS011;65309;49.790;18.972;2024-03-25T19:54:07;5.88;;;3.17;;
76477;SDS011;65309;49.790;18.972;2024-03-25T19:59:08;4.55;;;3.05;;
76477;SDS011;65309;49.790;18.972;2024-03-25T20:04:11;3.90;;;2.67;;
76477;SDS011;65309;49.790;18.972;2024-03-25T20:09:12;3.50;;;2.05;;
76477;SDS011;65309;49.790;18.972;2024-03-25T20:14:14;4.53;;;2.20;;
76477;SDS011;65309;49.790;18.972;2024-03-25T20:19:19;5.22;;;3.50;;
76477;SDS011;65309;49.790;18.972;2024-03-25T20:24:20;6.78;;;4.07;;
76477;SDS011;65309;49.790;18.972;2024-03-25T20:29:21;3.80;;;2.92;;
76477;SDS011;65309;49.790;18.972;2024-03-25T20:34:24;6.45;;;3.65;;
76477;SDS011;65309;49.790;18.972;2024-03-25T20:39:25;4.45;;;3.40;;
76477;SDS011;65309;49.790;18.972;2024-03-25T20:44:27;5.90;;;2.78;;
76477;SDS011;65309;49.790;18.972;2024-03-25T20:49:29;6.20;;;3.75;;
76477;SDS011;65309;49.790;18.972;2024-03-25T20:54:31;4.00;;;2.95;;
76477;SDS011;65309;49.790;18.972;2024-03-25T20:59:32;3.92;;;2.53;;
76477;SDS011;65309;49.790;18.972;2024-03-25T21:04:36;4.05;;;2.70;;
76477;SDS011;65309;49.790;18.972;2024-03-25T21:09:39;3.78;;;2.97;;
76477;SDS011;65309;49.790;18.972;2024-03-25T21:14:45;6.15;;;2.72;;
76477;SDS011;65309;49.790;18.972;2024-03-25T21:19:47;3.05;;;2.45;;
76477;SDS011;65309;49.790;18.972;2024-03-25T21:24:49;6.55;;;4.00;;
76477;SDS011;65309;49.790;18.972;2024-03-25T21:29:50;6.15;;;3.75;;
76477;SDS011;65309;49.790;18.972;2024-03-25T21:34:53;4.00;;;2.47;;
76477;SDS011;65309;49.790;18.972;2024-03-25T21:39:54;5.40;;;3.03;;
76477;SDS011;65309;49.790;18.972;2024-03-25T21:44:55;6.15;;;2.72;;
76477;SDS011;65309;49.790;18.972;2024-03-25T21:49:58;4.93;;;3.50;;
76477;SDS011;65309;49.790;18.972;2024-03-25T21:54:59;8.50;;;3.92;;
76477;SDS011;65309;49.790;18.972;2024-03-25T22:00:00;7.03;;;3.08;;
76477;SDS011;65309;49.790;18.972;2024-03-25T22:05:04;7.60;;;4.95;;
76477;SDS011;65309;49.790;18.972;2024-03-25T22:10:06;6.85;;;3.10;;
76477;SDS011;65309;49.790;18.972;2024-03-25T22:15:08;6.18;;;3.95;;
76477;SDS011;65309;49.790;18.972;2024-03-25T22:20:11;5.20;;;3.42;;
76477;SDS011;65309;49.790;18.972;2024-03-25T22:25:12;9.35;;;4.70;;
76477;SDS011;65309;49.790;18.972;2024-03-25T22:30:14;13.07;;;7.25;;
76477;SDS011;65309;49.790;18.972;2024-03-25T22:35:17;9.68;;;4.43;;
76477;SDS011;65309;49.790;18.972;2024-03-25T22:40:18;7.32;;;4.70;;
76477;SDS011;65309;49.790;18.972;2024-03-25T22:45:20;9.35;;;4.72;;
76477;SDS011;65309;49.790;18.972;2024-03-25T22:50:23;5.63;;;3.13;;
76477;SDS011;65309;49.790;18.972;2024-03-25T22:55:24;5.22;;;2.97;;
76477;SDS011;65309;49.790;18.972;2024-03-25T23:00:25;3.58;;;2.35;;
76477;SDS011;65309;49.790;18.972;2024-03-25T23:05:32;4.05;;;2.72;;
76477;SDS011;65309;49.790;18.972;2024-03-25T23:10:33;3.38;;;2.85;;
76477;SDS011;65309;49.790;18.972;2024-03-25T23:15:34;4.05;;;2.95;;
76477;SDS011;65309;49.790;18.972;2024-03-25T23:20:37;5.82;;;3.15;;
76477;SDS011;65309;49.790;18.972;2024-03-25T23:25:39;4.80;;;1.88;;
76477;SDS011;65309;49.790;18.972;2024-03-25T23:30:41;5.10;;;2.75;;
76477;SDS011;65309;49.790;18.972;2024-03-25T23:35:44;4.53;;;2.63;;
76477;SDS011;65309;49.790;18.972;2024-03-25T23:40:47;4.97;;;3.35;;
76477;SDS011;65309;49.790;18.972;2024-03-25T23:45:48;3.80;;;2.65;;
76477;SDS011;65309;49.790;18.972;2024-03-25T23:50:56;3.45;;;2.70;;
76477;SDS011;65309;49.790;18.972;2024-03-25T23:55:57;5.60;;;3.75;;
